Time;durP1;ratioP1;P1;durP2;ratioP2;P2;SDS_P1;SDS_P2;PMS_P1;PMS_P2;Temp;Humidity;BMP_temperature;BMP_pressure;BME280_temperature;BME280_humidity;BME280_pressure;Samples;Min_cycle;Max_cycle;Signal;HPM_P1;HPM_P2
2023/06/12 00:00:47;;;;;;;7.00;4.25;;;;;;;21.49;51.57;101436.88;5154850;27;20390;-50
2023/06/12 00:03:15;;;;;;;9.57;4.35;;;;;;;21.45;52.37;101437.22;5154275;27;20077;-53
2023/06/12 00:05:45;;;;;;;10.10;4.35;;;;;;;21.41;51.94;101441.19;5157660;27;20043;-53
2023/06/12 00:08:17;;;;;;;7.53;4.28;;;;;;;21.38;52.34;101436.16;5157284;27;20095;-52
2023/06/12 00:10:47;;;;;;;8.20;4.15;;;;;;;21.35;52.14;101433.81;5155271;27;20115;-54
2023/06/12 00:13:16;;;;;;;7.18;4.20;;;;;;;21.31;52.22;101435.13;5153414;27;20060;-52
2023/06/12 00:15:44;;;;;;;8.45;3.95;;;;;;;21.27;52.90;101434.59;5157220;27;20053;-52
2023/06/12 00:18:13;;;;;;;7.90;3.83;;;;;;;21.22;52.55;101434.22;5157329;27;20591;-52
2023/06/12 00:20:41;;;;;;;9.18;4.65;;;;;;;21.21;53.01;101431.69;5157187;27;20499;-53
2023/06/12 00:23:11;;;;;;;9.32;4.55;;;;;;;21.16;53.26;101436.66;5155564;27;20035;-54
2023/06/12 00:25:40;;;;;;;9.57;4.38;;;;;;;21.11;53.54;101437.16;5153936;27;20099;-62
2023/06/12 00:28:09;;;;;;;9.50;4.30;;;;;;;21.03;54.26;101440.56;5152547;27;20054;-62
2023/06/12 00:30:37;;;;;;;8.15;4.13;;;;;;;20.99;54.36;101443.72;5154189;27;20042;-62
2023/06/12 00:33:06;;;;;;;8.02;4.35;;;;;;;20.90;55.20;101438.31;5157149;27;20065;-61
2023/06/12 00:35:34;;;;;;;8.13;4.45;;;;;;;20.88;55.04;101437.59;5136502;27;20043;-52
2023/06/12 00:38:02;;;;;;;7.70;4.53;;;;;;;20.92;55.18;101438.16;5153812;27;20099;-50
2023/06/12 00:40:31;;;;;;;7.07;4.38;;;;;;;20.84;56.05;101435.41;5152880;27;20095;-62
2023/06/12 00:42:59;;;;;;;8.80;4.57;;;;;;;20.77;56.48;101437.84;5152078;27;20074;-62
2023/06/12 00:45:28;;;;;;;8.43;4.30;;;;;;;20.77;56.59;101432.50;5156378;27;20065;-63
2023/06/12 00:47:58;;;;;;;7.65;4.15;;;;;;;20.72;56.20;101441.00;5155209;27;20497;-62
2023/06/12 00:50:27;;;;;;;7.60;4.18;;;;;;;20.70;56.63;101432.28;5134070;27;20054;-62
2023/06/12 00:52:57;;;;;;;8.57;4.38;;;;;;;20.68;56.50;101434.28;5154128;27;20034;-62
2023/06/12 00:55:26;;;;;;;7.65;4.78;;;;;;;20.66;57.17;101432.72;5138184;27;20062;-62
2023/06/12 00:57:54;;;;;;;7.88;4.18;;;;;;;20.58;57.54;101428.94;5156384;27;20091;-61
2023/06/12 01:00:23;;;;;;;8.90;4.47;;;;;;;20.62;57.28;101432.16;5153107;27;20047;-61
2023/06/12 01:02:55;;;;;;;8.77;4.25;;;;;;;20.62;57.53;101431.34;5135096;27;20043;-63
2023/06/12 01:05:32;;;;;;;9.32;4.47;;;;;;;20.50;58.93;101428.84;5134115;27;20061;-61
2023/06/12 01:08:17;;;;;;;7.90;4.43;;;;;;;20.49;58.85;101434.34;5155990;27;20374;-62
2023/06/12 01:10:49;;;;;;;8.43;4.35;;;;;;;20.40;58.99;101426.25;5156318;27;20118;-61
2023/06/12 01:13:18;;;;;;;7.13;4.38;;;;;;;20.38;59.24;101424.72;5156421;27;20043;-62
2023/06/12 01:15:46;;;;;;;7.22;3.95;;;;;;;20.38;60.09;101428.25;5156331;27;20489;-61
2023/06/12 01:18:17;;;;;;;7.35;4.38;;;;;;;20.35;60.00;101422.38;5155960;27;20038;-62
2023/06/12 01:20:45;;;;;;;7.18;4.25;;;;;;;20.33;59.42;101427.00;5156351;27;20054;-62
2023/06/12 01:23:20;;;;;;;8.90;4.00;;;;;;;20.29;60.20;101429.16;5156173;27;20504;-61
2023/06/12 01:26:08;;;;;;;7.35;4.07;;;;;;;20.24;60.83;101424.25;5156027;27;20039;-62
2023/06/12 01:29:08;;;;;;;7.68;4.10;;;;;;;20.20;61.18;101427.38;5155864;27;20473;-61
2023/06/12 01:31:43;;;;;;;8.13;4.45;;;;;;;20.14;61.07;101419.94;5153172;27;20047;-61
2023/06/12 01:34:20;;;;;;;8.10;4.18;;;;;;;20.04;60.76;101428.88;5135874;27;20050;-61
2023/06/12 01:36:54;;;;;;;7.05;4.25;;;;;;;19.94;61.36;101428.06;5155728;27;20047;-61
2023/06/12 01:39:26;;;;;;;7.97;4.45;;;;;;;19.95;60.76;101427.06;5155031;27;20083;-62
2023/06/12 01:41:56;;;;;;;7.32;4.68;;;;;;;19.92;61.43;101424.72;5151536;27;20049;-61
2023/06/12 01:44:25;;;;;;;7.10;4.28;;;;;;;19.93;60.96;101429.91;5153330;27;20454;-61
2023/06/12 01:46:53;;;;;;;9.23;4.28;;;;;;;19.88;60.52;101428.66;5155736;27;20397;-62
2023/06/12 01:49:22;;;;;;;8.77;4.50;;;;;;;19.84;60.13;101429.94;5155556;27;20042;-61
2023/06/12 01:51:50;;;;;;;7.43;4.55;;;;;;;19.75;60.75;101437.78;5155392;27;20423;-61
2023/06/12 01:54:21;;;;;;;7.93;4.18;;;;;;;19.74;60.70;101436.13;5155395;27;20042;-62
2023/06/12 01:56:49;;;;;;;8.00;4.57;;;;;;;19.72;60.81;101431.91;5153368;27;20042;-62
2023/06/12 01:59:18;;;;;;;9.40;4.68;;;;;;;19.67;60.90;101435.00;5151630;27;20498;-61
2023/06/12 02:01:49;;;;;;;8.10;4.32;;;;;;;19.63;61.46;101430.94;5135958;27;20613;-61
2023/06/12 02:04:18;;;;;;;7.22;4.68;;;;;;;19.63;61.76;101432.78;5155005;27;20103;-61
2023/06/12 02:06:48;;;;;;;7.60;4.60;;;;;;;19.61;62.08;101424.91;5154736;27;20129;-61
2023/06/12 02:09:20;;;;;;;;;;;;;;;19.58;62.89;101431.38;5152091;27;20111;-61
2023/06/12 02:11:49;;;;;;;7.50;4.30;;;;;;;19.58;65.23;101430.56;5154010;27;19919;-61
2023/06/12 02:14:17;;;;;;;7.55;4.00;;;;;;;19.56;65.35;101429.84;5136436;27;20072;-61
2023/06/12 02:16:46;;;;;;;10.95;4.25;;;;;;;19.54;65.87;101434.50;5154842;27;20099;-62
2023/06/12 02:19:14;;;;;;;7.72;4.05;;;;;;;19.50;67.39;101433.94;5155018;27;20485;-61
2023/06/12 02:21:42;;;;;;;7.75;4.32;;;;;;;19.42;69.23;101436.47;5154687;27;20046;-61
2023/06/12 02:24:11;;;;;;;7.68;4.53;;;;;;;19.40;69.28;101441.09;5154371;27;20505;-61
2023/06/12 02:26:40;;;;;;;8.38;4.45;;;;;;;19.37;70.72;101444.94;5132046;27;20046;-60
2023/06/12 02:29:09;;;;;;;7.93;4.18;;;;;;;19.33;70.42;101442.66;5151289;27;20049;-60
2023/06/12 02:31:37;;;;;;;7.88;4.05;;;;;;;19.31;70.83;101445.47;5153533;27;20070;-60
2023/06/12 02:34:06;;;;;;;7.97;3.97;;;;;;;19.22;71.38;101443.66;5151518;27;20060;-61
2023/06/12 02:36:39;;;;;;;6.93;4.20;;;;;;;19.17;71.82;101445.91;5152871;27;20046;-60
2023/06/12 02:39:08;;;;;;;12.15;4.88;;;;;;;19.05;71.15;101440.72;5154673;27;20374;-60
2023/06/12 02:41:38;;;;;;;7.95;4.40;;;;;;;19.01;71.03;101444.66;5154602;27;20054;-60
2023/06/12 02:44:07;;;;;;;7.30;4.65;;;;;;;19.04;71.83;101444.38;5154311;27;20058;-62
2023/06/12 02:46:52;;;;;;;8.77;4.35;;;;;;;19.06;71.67;101444.22;5154443;27;20046;-61
2023/06/12 02:49:21;;;;;;;8.25;4.40;;;;;;;18.99;71.46;101443.13;5154583;27;20047;-61
2023/06/12 02:51:49;;;;;;;9.35;5.00;;;;;;;18.96;71.28;101443.41;5154884;27;20492;-60
2023/06/12 02:54:19;;;;;;;6.97;4.07;;;;;;;18.92;71.72;101450.84;5154455;27;20049;-58
2023/06/12 02:56:52;;;;;;;8.80;4.30;;;;;;;18.86;72.07;101438.06;5154643;27;20066;-56
2023/06/12 02:59:22;;;;;;;7.35;4.35;;;;;;;18.84;72.59;101446.19;5154416;27;20038;-61
2023/06/12 03:01:51;;;;;;;6.72;4.00;;;;;;;18.78;72.63;101445.91;5135864;27;20082;-60
2023/06/12 03:04:21;;;;;;;7.78;4.57;;;;;;;18.74;72.21;101446.16;5135717;27;20051;-61
2023/06/12 03:06:52;;;;;;;7.68;4.53;;;;;;;18.76;72.31;101438.06;5153753;27;20117;-60
2023/06/12 03:09:21;;;;;;;7.88;4.32;;;;;;;18.66;72.52;101446.00;5153693;27;20531;-59
2023/06/12 03:11:52;;;;;;;7.18;4.45;;;;;;;18.68;72.93;101449.38;5153697;27;20056;-60
2023/06/12 03:14:24;;;;;;;9.50;4.50;;;;;;;18.66;73.22;101443.34;5153908;27;20050;-60
2023/06/12 03:16:52;;;;;;;8.07;4.63;;;;;;;18.66;73.23;101446.00;5150584;27;20385;-60
2023/06/12 03:19:20;;;;;;;9.88;5.00;;;;;;;18.58;73.51;101448.53;5150422;27;20046;-60
2023/06/12 03:21:49;;;;;;;9.32;4.43;;;;;;;18.53;73.44;101445.44;5154090;27;20031;-60
2023/06/12 03:24:17;;;;;;;10.38;4.50;;;;;;;18.52;74.04;101449.09;5153894;27;20039;-61
2023/06/12 03:26:45;;;;;;;8.35;4.30;;;;;;;18.48;74.76;101445.00;5154136;27;20377;-61
2023/06/12 03:29:14;;;;;;;9.10;4.95;;;;;;;18.42;75.30;101447.25;5154102;27;20055;-60
2023/06/12 03:31:43;;;;;;;8.02;4.65;;;;;;;18.40;76.42;101438.53;5153886;27;20137;-61
2023/06/12 03:34:11;;;;;;;7.53;4.70;;;;;;;18.45;75.29;101446.13;5154050;27;20103;-61
2023/06/12 03:36:40;;;;;;;8.25;4.75;;;;;;;18.38;76.18;101448.50;5153880;27;20108;-60
2023/06/12 03:39:09;;;;;;;7.50;4.40;;;;;;;18.35;76.68;101443.44;5154158;27;20053;-61
2023/06/12 03:41:51;;;;;;;8.88;5.20;;;;;;;18.29;76.87;101446.63;5153934;27;20047;-61
2023/06/12 03:44:20;;;;;;;8.85;4.82;;;;;;;18.28;77.25;101444.13;5153933;27;20051;-61
2023/06/12 03:46:49;;;;;;;9.27;5.05;;;;;;;18.23;78.35;101447.19;5153891;27;20077;-61
2023/06/12 03:49:17;;;;;;;8.45;4.65;;;;;;;18.26;78.42;101448.75;5154043;27;20537;-60
2023/06/12 03:51:45;;;;;;;9.15;5.18;;;;;;;18.25;78.37;101453.22;5153735;27;20031;-60
2023/06/12 03:54:13;;;;;;;8.27;4.63;;;;;;;18.26;78.35;101454.91;5153803;27;20576;-59
2023/06/12 03:56:42;;;;;;;9.98;4.95;;;;;;;18.21;78.94;101449.13;5153584;27;20035;-60
2023/06/12 03:59:10;;;;;;;9.48;4.75;;;;;;;18.16;78.75;101448.69;5153937;27;20046;-61
2023/06/12 04:01:42;;;;;;;9.68;4.80;;;;;;;18.17;79.06;101453.06;5153635;27;20126;-58
2023/06/12 04:04:11;;;;;;;9.48;4.97;;;;;;;18.13;78.64;101449.81;5153727;27;20038;-48
2023/06/12 04:06:40;;;;;;;8.07;4.93;;;;;;;18.13;79.11;101447.16;5153821;27;20398;-52
2023/06/12 04:09:14;;;;;;;11.13;5.65;;;;;;;18.10;79.40;101449.25;5153534;27;20058;-51
2023/06/12 04:11:43;;;;;;;10.02;4.82;;;;;;;18.11;79.79;101456.28;5153469;27;20037;-60
2023/06/12 04:14:11;;;;;;;9.13;5.25;;;;;;;18.10;79.96;101451.91;5153809;27;20093;-60
2023/06/12 04:16:41;;;;;;;7.43;4.68;;;;;;;18.10;80.21;101458.06;5153129;27;20043;-60
2023/06/12 04:19:09;;;;;;;8.60;4.90;;;;;;;18.07;81.38;101453.84;5153205;27;20053;-60
2023/06/12 04:21:38;;;;;;;10.60;5.35;;;;;;;18.07;81.41;101453.84;5153243;27;20035;-60
2023/06/12 04:24:13;;;;;;;7.90;4.82;;;;;;;18.10;81.47;101454.56;5153699;27;20049;-60
2023/06/12 04:26:43;;;;;;;9.55;5.15;;;;;;;18.10;81.59;101458.06;5153507;27;20446;-60
2023/06/12 04:29:12;;;;;;;8.93;4.90;;;;;;;18.11;81.70;101453.59;5157237;27;20401;-60
2023/06/12 04:31:42;;;;;;;8.95;4.90;;;;;;;18.14;81.85;101456.81;5138278;27;20038;-60
2023/06/12 04:34:13;;;;;;;11.23;5.30;;;;;;;18.22;81.24;101448.16;5157235;27;20037;-60
2023/06/12 04:36:41;;;;;;;9.18;5.00;;;;;;;18.22;81.76;101442.84;5156850;27;20046;-61
2023/06/12 04:39:11;;;;;;;7.45;4.88;;;;;;;18.25;81.71;101445.22;5156973;27;20431;-60
2023/06/12 04:41:41;;;;;;;9.10;5.03;;;;;;;18.26;81.64;101448.75;5157117;27;20073;-60
2023/06/12 04:44:09;;;;;;;8.65;5.53;;;;;;;18.30;82.11;101453.66;5157073;27;20047;-60
2023/06/12 04:46:37;;;;;;;9.23;4.90;;;;;;;18.34;81.69;101452.41;5156939;27;20515;-61
2023/06/12 04:49:06;;;;;;;9.93;4.88;;;;;;;18.37;81.70;101454.78;5157455;27;20061;-61
2023/06/12 04:51:35;;;;;;;8.77;4.82;;;;;;;18.42;82.70;101454.41;5156885;27;20130;-60
2023/06/12 04:54:05;;;;;;;9.60;5.22;;;;;;;18.45;82.11;101459.44;5156822;27;20403;-61
2023/06/12 04:56:33;;;;;;;10.10;5.32;;;;;;;18.52;81.35;101455.25;5156815;27;20050;-60
2023/06/12 04:59:01;;;;;;;9.13;5.35;;;;;;;18.58;80.95;101453.84;5156963;27;20527;-60
2023/06/12 05:01:30;;;;;;;9.77;5.25;;;;;;;18.66;80.98;101456.66;5156474;27;20039;-60
2023/06/12 05:03:58;;;;;;;7.78;4.78;;;;;;;18.73;80.48;101457.81;5156759;27;20145;-60
2023/06/12 05:06:28;;;;;;;8.00;5.00;;;;;;;18.83;81.06;101455.16;5156554;27;20493;-60
2023/06/12 05:08:56;;;;;;;8.32;5.00;;;;;;;18.85;81.22;101460.34;5137876;27;20401;-60
2023/06/12 05:11:24;;;;;;;8.05;4.68;;;;;;;18.89;80.22;101464.44;5137728;27;20034;-60
2023/06/12 05:13:52;;;;;;;11.38;4.88;;;;;;;18.94;79.12;101458.69;5156143;27;20393;-60
2023/06/12 05:16:20;;;;;;;12.00;5.20;;;;;;;19.01;78.86;101459.81;5156222;27;20413;-60
2023/06/12 05:18:49;;;;;;;9.18;5.28;;;;;;;19.08;79.28;101461.78;5155309;27;20068;-60
2023/06/12 05:21:18;;;;;;;9.02;5.40;;;;;;;19.19;77.43;101468.78;5151832;27;20121;-61
2023/06/12 05:23:50;;;;;;;8.30;5.07;;;;;;;19.24;78.55;101465.72;5152878;27;20051;-60
2023/06/12 05:26:18;;;;;;;8.63;5.30;;;;;;;19.33;78.22;101467.50;5151658;27;20049;-62
2023/06/12 05:28:50;;;;;;;8.63;5.30;;;;;;;19.41;78.15;101461.47;5137517;27;20045;-50
2023/06/12 05:31:18;;;;;;;10.02;5.30;;;;;;;19.49;79.42;101461.59;5155795;27;20038;-61
2023/06/12 05:33:46;;;;;;;10.27;5.40;;;;;;;19.57;79.73;101459.03;5155923;27;20397;-53
2023/06/12 05:36:14;;;;;;;10.73;5.50;;;;;;;19.67;78.61;101461.69;5156314;27;20066;-50
2023/06/12 05:38:46;;;;;;;9.10;5.40;;;;;;;19.76;79.68;101459.97;5152320;27;20066;-50
2023/06/12 05:41:16;;;;;;;9.43;5.70;;;;;;;19.84;76.85;101456.63;5151610;27;20070;-50
2023/06/12 05:43:45;;;;;;;10.35;5.22;;;;;;;19.89;77.37;101457.88;5152025;27;20057;-54
2023/06/12 05:46:14;;;;;;;11.50;5.50;;;;;;;19.98;76.10;101453.47;5152279;27;20435;-53
2023/06/12 05:48:42;;;;;;;9.15;5.30;;;;;;;20.10;72.14;101454.13;5154052;27;20126;-63
2023/06/12 05:51:10;;;;;;;10.38;5.47;;;;;;;20.22;70.06;101462.75;5155157;27;20497;-63
2023/06/12 05:53:39;;;;;;;10.10;4.90;;;;;;;20.27;70.72;101455.16;5155072;27;20051;-62
2023/06/12 05:56:07;;;;;;;10.23;4.88;;;;;;;20.38;70.53;101454.97;5136680;27;20062;-64
2023/06/12 05:58:39;;;;;;;8.50;4.80;;;;;;;20.46;69.33;101467.56;5153961;27;20124;-63
2023/06/12 06:01:11;;;;;;;10.50;5.47;;;;;;;20.63;69.71;101473.06;5152508;27;20093;-61
2023/06/12 06:03:42;;;;;;;10.50;5.78;;;;;;;20.76;67.71;101474.44;5152484;27;20066;-62
2023/06/12 06:06:13;;;;;;;10.27;5.53;;;;;;;20.85;66.02;101472.66;5152174;27;20042;-62
2023/06/12 06:08:41;;;;;;;10.75;5.47;;;;;;;20.93;67.04;101474.59;5136840;27;20134;-63
2023/06/12 06:11:09;;;;;;;8.85;4.90;;;;;;;21.03;67.68;101483.34;5152490;27;20050;-62
2023/06/12 06:13:41;;;;;;;14.63;5.78;;;;;;;21.17;66.46;101478.47;5133165;27;20130;-61
2023/06/12 06:16:10;;;;;;;10.60;5.90;;;;;;;21.23;68.36;101476.00;5151812;27;20489;-63
2023/06/12 06:18:39;;;;;;;10.15;5.68;;;;;;;21.34;68.62;101477.59;5154985;27;20047;-53
2023/06/12 06:21:07;;;;;;;11.68;5.68;;;;;;;21.51;66.50;101475.03;5155147;27;20446;-62
2023/06/12 06:23:35;;;;;;;7.88;5.20;;;;;;;21.67;66.95;101472.50;5154892;27;20057;-62
2023/06/12 06:26:04;;;;;;;8.98;5.30;;;;;;;21.83;63.86;101477.13;5154975;27;20070;-61
2023/06/12 06:28:32;;;;;;;12.20;5.75;;;;;;;21.90;65.04;101478.16;5154903;27;20038;-63
2023/06/12 06:31:03;;;;;;;9.57;5.68;;;;;;;22.03;63.46;101480.41;5155022;27;20046;-63
2023/06/12 06:33:32;;;;;;;14.18;5.75;;;;;;;22.14;62.54;101479.25;5154533;27;20071;-62
2023/06/12 06:36:00;;;;;;;10.43;6.05;;;;;;;22.22;62.61;101482.00;5155108;27;20435;-61
2023/06/12 06:38:28;;;;;;;10.00;6.20;;;;;;;22.31;60.84;101479.34;5135768;27;20050;-63
2023/06/12 06:40:56;;;;;;;11.98;6.65;;;;;;;22.40;61.55;101479.25;5154681;27;20103;-63
2023/06/12 06:43:25;;;;;;;10.35;6.10;;;;;;;22.50;62.15;101481.78;5154596;27;20085;-62
2023/06/12 06:45:53;;;;;;;9.32;6.30;;;;;;;22.60;60.82;101479.78;5154340;27;20076;-62
2023/06/12 06:48:22;;;;;;;13.63;6.40;;;;;;;22.67;59.67;101484.50;5151216;27;20091;-63
2023/06/12 06:50:51;;;;;;;12.18;5.53;;;;;;;22.81;63.08;101480.34;5132103;27;20046;-62
2023/06/12 06:53:19;;;;;;;9.00;6.32;;;;;;;22.92;66.42;101477.34;5151030;27;20039;-63
2023/06/12 06:55:47;;;;;;;12.30;6.55;;;;;;;23.03;65.74;101482.38;5153612;27;20043;-63
2023/06/12 06:58:15;;;;;;;11.93;6.68;;;;;;;23.22;64.94;101481.25;5154345;27;20043;-62
2023/06/12 07:00:43;;;;;;;11.30;5.90;;;;;;;23.26;61.77;101481.72;5154249;27;20047;-63
2023/06/12 07:03:12;;;;;;;13.68;6.28;;;;;;;23.50;60.99;101480.88;5152632;27;20039;-62
2023/06/12 07:05:41;;;;;;;10.50;6.40;;;;;;;23.49;58.99;101481.03;5150543;27;20039;-62
2023/06/12 07:08:10;;;;;;;10.57;6.00;;;;;;;23.63;61.28;101480.38;5153333;27;20092;-53
2023/06/12 07:10:38;;;;;;;11.07;6.57;;;;;;;23.92;60.49;101476.28;5153964;27;20043;-63
2023/06/12 07:13:06;;;;;;;9.43;6.07;;;;;;;24.08;59.13;101478.09;5149676;27;20046;-64
2023/06/12 07:15:34;;;;;;;9.35;5.53;;;;;;;24.23;57.53;101468.28;5152602;27;20049;-62
2023/06/12 07:18:03;;;;;;;10.27;6.13;;;;;;;24.36;58.46;101464.19;5152396;27;20115;-61
2023/06/12 07:20:31;;;;;;;11.07;7.03;;;;;;;24.44;58.33;101462.25;5149643;27;20400;-62
2023/06/12 07:23:00;;;;;;;9.75;6.10;;;;;;;24.68;59.96;101463.19;5132440;27;20047;-63
2023/06/12 07:25:28;;;;;;;11.70;6.43;;;;;;;24.84;57.47;101464.91;5154161;27;20577;-62
2023/06/12 07:27:57;;;;;;;8.85;6.03;;;;;;;24.91;58.18;101462.31;5152430;27;20066;-61
2023/06/12 07:30:25;;;;;;;13.55;6.80;;;;;;;25.03;59.06;101458.19;5150220;27;20047;-62
2023/06/12 07:32:53;;;;;;;12.45;7.07;;;;;;;25.22;58.37;101456.03;5152529;27;20063;-62
2023/06/12 07:35:21;;;;;;;9.93;5.03;;;;;;;25.33;53.89;101455.59;5154082;27;20053;-61
2023/06/12 07:37:49;;;;;;;10.90;5.80;;;;;;;25.50;55.48;101452.75;5153831;27;20043;-61
2023/06/12 07:40:19;;;;;;;9.98;5.95;;;;;;;25.52;51.99;101454.25;5153887;27;20078;-53
2023/06/12 07:42:48;;;;;;;11.80;5.00;;;;;;;25.67;50.75;101450.72;5153713;27;20035;-52
2023/06/12 07:45:16;;;;;;;8.13;5.28;;;;;;;25.77;50.60;101460.22;5153682;27;20524;-53
2023/06/12 07:47:45;;;;;;;8.20;4.53;;;;;;;25.90;51.42;101456.03;5151265;27;20038;-54
2023/06/12 07:50:14;;;;;;;10.50;5.07;;;;;;;26.11;50.20;101456.13;5150213;27;20096;-52
2023/06/12 07:52:42;;;;;;;12.38;5.50;;;;;;;26.15;48.41;101454.72;5150203;27;20135;-51
2023/06/12 07:55:10;;;;;;;8.93;5.38;;;;;;;26.36;48.07;101458.50;5150315;27;20046;-53
2023/06/12 07:57:40;;;;;;;8.80;5.18;;;;;;;26.49;49.51;101450.56;5149069;27;20059;-52
2023/06/12 08:00:10;;;;;;;10.55;4.85;;;;;;;26.64;46.20;101452.34;5150432;27;20895;-53
2023/06/12 08:02:38;;;;;;;10.20;5.15;;;;;;;26.83;46.61;101450.91;5133355;27;20507;-54
2023/06/12 08:05:08;;;;;;;8.70;5.45;;;;;;;26.98;46.24;101454.38;5157536;27;20110;-54
2023/06/12 08:07:36;;;;;;;7.53;4.32;;;;;;;27.12;44.01;101449.09;5154403;27;20058;-53
2023/06/12 08:10:07;;;;;;;10.07;5.32;;;;;;;27.38;45.31;101447.63;5154792;27;20043;-52
2023/06/12 08:12:35;;;;;;;12.65;5.40;;;;;;;27.40;42.38;101454.50;5155835;27;20059;-54
2023/06/12 08:15:07;;;;;;;8.55;4.75;;;;;;;27.49;42.37;101445.22;5154586;27;20050;-54
2023/06/12 08:17:36;;;;;;;7.30;4.65;;;;;;;27.66;43.00;101453.88;5136152;27;20095;-55
2023/06/12 08:20:08;;;;;;;14.23;5.55;;;;;;;27.81;42.97;101442.94;5153650;27;20457;-63
2023/06/12 08:22:36;;;;;;;9.27;5.32;;;;;;;28.06;44.23;101447.00;5155763;27;20043;-55
2023/06/12 08:25:06;;;;;;;9.43;5.13;;;;;;;28.13;42.75;101446.00;5157287;27;20039;-63
2023/06/12 08:27:35;;;;;;;9.70;5.80;;;;;;;28.28;42.40;101439.63;5157187;27;20519;-55
2023/06/12 08:30:05;;;;;;;8.98;5.20;;;;;;;28.47;42.21;101438.81;5156392;27;20054;-55
2023/06/12 08:32:34;;;;;;;8.75;5.55;;;;;;;28.70;44.20;101439.50;5153486;27;20477;-56
2023/06/12 08:35:02;;;;;;;7.47;5.28;;;;;;;28.83;41.89;101437.66;5153453;27;20068;-64
2023/06/12 08:37:32;;;;;;;9.25;5.45;;;;;;;28.83;43.65;101437.66;5153617;27;20046;-63
2023/06/12 08:40:01;;;;;;;8.50;5.32;;;;;;;28.96;41.15;101444.09;5155851;27;20047;-56
2023/06/12 08:42:32;;;;;;;11.97;5.10;;;;;;;28.88;41.21;101437.03;5151966;27;20095;-56
2023/06/12 08:45:07;;;;;;;10.15;5.07;;;;;;;29.09;40.53;101444.09;5154139;27;20054;-64
2023/06/12 08:47:49;;;;;;;10.25;5.70;;;;;;;29.08;39.50;101436.19;5154952;27;20082;-64
2023/06/12 08:50:18;;;;;;;9.55;5.40;;;;;;;29.38;40.09;101435.78;5153099;27;20047;-64
2023/06/12 08:52:47;;;;;;;7.78;5.50;;;;;;;29.43;36.95;101439.50;5153635;27;20047;-63
2023/06/12 08:55:15;;;;;;;7.95;4.88;;;;;;;29.50;35.04;101431.38;5155704;27;20046;-63
2023/06/12 08:57:44;;;;;;;9.43;5.30;;;;;;;29.59;38.07;101437.41;5152279;27;20486;-63
2023/06/12 09:00:15;;;;;;;8.52;5.05;;;;;;;29.73;38.57;101432.78;5153609;27;20035;-63
2023/06/12 09:02:45;;;;;;;9.35;5.55;;;;;;;29.87;37.54;101428.16;5155964;27;20043;-64
2023/06/12 09:05:18;;;;;;;8.82;5.18;;;;;;;30.11;37.68;101429.31;5156596;27;20049;-63
2023/06/12 09:07:48;;;;;;;9.50;5.40;;;;;;;30.22;36.18;101430.53;5153588;27;20415;-63
2023/06/12 09:10:17;;;;;;;9.00;5.30;;;;;;;30.22;34.04;101431.34;5153951;27;20397;-63
2023/06/12 09:12:45;;;;;;;10.07;5.70;;;;;;;30.42;33.76;101431.22;5154131;27;20039;-57
2023/06/12 09:15:19;;;;;;;7.70;5.40;;;;;;;30.40;35.07;101430.59;5151750;27;20054;-56
2023/06/12 09:17:48;;;;;;;9.55;5.40;;;;;;;30.68;35.50;101427.53;5155843;27;20371;-63
2023/06/12 09:20:17;;;;;;;9.45;5.80;;;;;;;30.75;33.79;101429.38;5155386;27;20042;-63
2023/06/12 09:23:05;;;;;;;10.00;5.22;;;;;;;31.00;33.03;101426.66;5152994;27;20066;-64
2023/06/12 09:25:35;;;;;;;8.88;5.50;;;;;;;31.02;31.89;101430.84;5152831;27;20118;-64
2023/06/12 09:28:04;;;;;;;9.95;4.88;;;;;;;31.21;31.45;101421.88;5151100;27;20046;-56
2023/06/12 09:30:38;;;;;;;9.27;5.63;;;;;;;31.40;31.48;101418.16;5155005;27;20045;-56
2023/06/12 09:33:07;;;;;;;8.13;4.53;;;;;;;31.35;30.01;101426.16;5152982;27;20047;-56
2023/06/12 09:35:51;;;;;;;8.93;4.78;;;;;;;31.45;29.85;101418.28;5152223;27;20038;-62
2023/06/12 09:38:19;;;;;;;8.93;5.30;;;;;;;31.52;29.31;101420.94;5155390;27;20049;-62
2023/06/12 09:40:57;;;;;;;9.05;5.07;;;;;;;31.58;29.39;101425.47;5155835;27;20405;-62
2023/06/12 09:43:26;;;;;;;7.15;5.00;;;;;;;31.50;29.02;101415.72;5155864;27;20427;-61
2023/06/12 09:45:57;;;;;;;8.30;4.75;;;;;;;31.50;29.77;101415.72;5154096;27;20054;-62
2023/06/12 09:48:33;;;;;;;7.78;4.97;;;;;;;31.61;28.38;101408.75;5152136;27;20565;-62
2023/06/12 09:51:05;;;;;;;7.30;4.90;;;;;;;31.69;29.19;101410.34;5152266;27;20481;-62
2023/06/12 09:53:36;;;;;;;;;;;;;;;31.66;27.75;101406.19;5155895;27;20501;-62
2023/06/12 09:56:08;;;;;;;9.93;4.75;;;;;;;32.03;27.36;101408.84;5153699;27;20030;-55
2023/06/12 09:58:37;;;;;;;8.52;4.88;;;;;;;32.35;27.65;101394.19;5151987;27;20046;-55
2023/06/12 10:01:08;;;;;;;6.53;4.40;;;;;;;32.47;27.66;101403.22;5152611;27;20499;-55
2023/06/12 10:03:39;;;;;;;8.15;4.53;;;;;;;32.49;26.31;101394.81;5152596;27;20081;-56
2023/06/12 10:06:12;;;;;;;8.45;4.78;;;;;;;32.64;25.60;101394.38;5154637;27;20047;-55
2023/06/12 10:08:43;;;;;;;8.15;4.95;;;;;;;32.83;26.02;101393.25;5152560;27;20371;-56
2023/06/12 10:11:15;;;;;;;7.65;4.65;;;;;;;32.39;25.44;101389.94;5151476;27;20069;-56
2023/06/12 10:13:43;;;;;;;6.50;4.35;;;;;;;32.75;25.70;101398.19;5151768;27;20046;-63
2023/06/12 10:16:15;;;;;;;6.85;4.65;;;;;;;32.81;25.22;101400.00;5151990;27;20362;-64
2023/06/12 10:18:44;;;;;;;8.23;4.60;;;;;;;32.92;24.91;101401.06;5152691;27;20423;-63
2023/06/12 10:21:13;;;;;;;8.07;4.85;;;;;;;33.22;24.93;101390.03;5155215;27;20039;-63
2023/06/12 10:23:42;;;;;;;8.30;4.60;;;;;;;33.10;23.84;101389.22;5153045;27;20103;-57
2023/06/12 10:26:10;;;;;;;9.65;4.90;;;;;;;33.00;24.60;101390.63;5150556;27;20035;-57
2023/06/12 10:28:38;;;;;;;8.35;4.68;;;;;;;33.25;24.65;101384.13;5151278;27;20081;-57
2023/06/12 10:31:13;;;;;;;6.63;4.40;;;;;;;33.59;24.57;101391.66;5151696;27;20046;-55
2023/06/12 10:34:10;;;;;;;7.78;5.00;;;;;;;33.39;24.92;101381.97;5151479;27;20154;-57
2023/06/12 10:36:41;;;;;;;9.30;4.82;;;;;;;33.50;24.39;101383.84;5153758;27;20042;-56
2023/06/12 10:39:17;;;;;;;7.18;4.40;;;;;;;33.87;24.03;101377.25;5150956;27;20508;-57
2023/06/12 10:41:57;;;;;;;8.10;4.78;;;;;;;33.89;24.09;101371.56;5131504;27;20112;-63
2023/06/12 10:44:48;;;;;;;7.90;4.82;;;;;;;33.84;24.46;101367.66;5152428;27;20043;-57
2023/06/12 10:47:22;;;;;;;8.55;4.40;;;;;;;33.91;25.63;101367.50;5146846;27;20051;-56
2023/06/12 10:50:00;;;;;;;7.40;4.95;;;;;;;34.00;24.31;101371.47;5150872;27;20049;-57
2023/06/12 10:52:28;;;;;;;6.88;4.72;;;;;;;34.06;24.96;101374.31;5152291;27;20046;-57
2023/06/12 10:55:20;;;;;;;8.32;4.80;;;;;;;34.20;25.04;101371.03;5152131;27;20042;-57
2023/06/12 10:57:52;;;;;;;7.75;4.55;;;;;;;34.52;24.25;101356.03;5149990;27;20050;-56
2023/06/12 11:00:22;;;;;;;8.13;4.72;;;;;;;34.14;25.35;101366.56;5132402;27;20129;-56
2023/06/12 11:02:58;;;;;;;9.73;5.13;;;;;;;34.15;25.84;101362.75;5151577;27;20070;-55
2023/06/12 11:05:30;;;;;;;8.32;4.93;;;;;;;34.30;25.47;101362.22;5152512;27;20387;-55
2023/06/12 11:08:00;;;;;;;9.68;5.22;;;;;;;34.15;25.50;101368.19;5151881;27;20047;-58
2023/06/12 11:10:29;;;;;;;6.70;4.55;;;;;;;34.21;26.93;101360.97;5131754;27;20078;-58
2023/06/12 11:12:58;;;;;;;7.97;4.80;;;;;;;34.30;25.22;101353.22;5149689;27;20043;-64
2023/06/12 11:15:26;;;;;;;6.75;4.65;;;;;;;34.38;26.20;101354.72;5152044;27;20061;-62
2023/06/12 11:17:55;;;;;;;7.50;4.55;;;;;;;34.41;26.57;101346.84;5153993;27;20460;-62
2023/06/12 11:20:24;;;;;;;7.68;5.10;;;;;;;34.69;27.19;101358.75;5151053;27;20091;-63
2023/06/12 11:23:02;;;;;;;7.65;4.55;;;;;;;34.89;25.68;101360.16;5150878;27;20098;-63
2023/06/12 11:25:33;;;;;;;9.07;4.78;;;;;;;34.68;25.81;101347.00;5152865;27;20047;-63
2023/06/12 11:28:06;;;;;;;6.55;4.57;;;;;;;34.48;26.09;101352.13;5149506;27;20049;-62
2023/06/12 11:30:35;;;;;;;7.05;4.65;;;;;;;34.65;26.56;101335.75;5150935;27;20080;-56
2023/06/12 11:33:13;;;;;;;8.70;4.88;;;;;;;34.76;25.83;101345.75;5150379;27;20054;-61
2023/06/12 11:35:42;;;;;;;8.10;4.38;;;;;;;34.71;25.79;101348.41;5149641;27;20043;-63
2023/06/12 11:38:15;;;;;;;8.75;4.90;;;;;;;34.75;26.90;101332.34;5153256;27;20042;-62